TNCE/EUX METAR and TAF weather

Enter ICAO airport designator
Station Type Date Time Source
TNCE METAR 2018/12/19 03:55 UTC NOAA

TNCE 190355Z AUTO 08007KT 050V130 //// // ///////// 24/21 Q1017 RE//


Station Type Date Time Source
TNCE Decoded METAR 2018/12/19 03:55 UTC NOAA

Roosevelt Airport Saint Eustatius, Netherlands Antilles (TNCE) 17-29N 062-59W 39M
Dec 18, 2018 - 10:55 PM EST / 2018.12.19 0355 UTC
Wind: from the E (080 degrees) at 8 MPH (7 KT) (direction variable):0
Temperature: 75 F (24 C)
Dew Point: 69 F (21 C)
Relative Humidity: 83%
Pressure (altimeter): 30.03 in. Hg (1017 hPa)
ob: TNCE 190355Z AUTO 08007KT 050V130 //// // ///////// 24/21 Q1017 RE//
cycle: 4

Station Type Date Time Source
TNCE TAF UTC NOAA

Error!


Example: see airport list